Time;durP1;ratioP1;P1;durP2;ratioP2;P2;SDS_P1;SDS_P2;PMS_P1;PMS_P2;Temp;Humidity;BMP_temperature;BMP_pressure;BME280_temperature;BME280_humidity;BME280_pressure;Samples;Min_cycle;Max_cycle;Signal;HPM_P1;HPM_P2
2022/11/14 00:02:41;;;;;;;;;;;;;;;10.19;70.62;102146.79;1875524;76;20140;-56
2022/11/14 00:05:27;;;;;;;;;;;;;;;10.14;70.82;102145.98;1876916;76;20113;-48
2022/11/14 00:08:14;;;;;;;;;;;;;;;10.15;70.71;102148.59;1874830;76;20122;-54
2022/11/14 00:10:59;;;;;;;;;;;;;;;10.18;70.59;102147.67;1877794;76;20119;-56
2022/11/14 00:13:48;;;;;;;;;;;;;;;10.17;70.58;102145.95;1876816;76;20205;-51
2022/11/14 00:16:33;;;;;;;;;;;;;;;10.17;70.50;102152.08;1876956;76;20181;-49
2022/11/14 00:19:19;;;;;;;;;;;;;;;10.13;70.58;102156.11;1865917;76;20157;-59
2022/11/14 00:22:05;;;;;;;;;;;;;;;10.11;70.58;102167.97;1875153;76;20170;-56
2022/11/14 00:24:51;;;;;;;;;;;;;;;10.10;70.60;102166.67;1874659;76;20114;-57
2022/11/14 00:27:37;;;;;;;;;;;;;;;10.10;70.55;102166.67;1853490;76;20154;-56
2022/11/14 00:30:22;;;;;;;;;;;;;;;10.11;70.50;102157.89;1882163;75;20157;-56
2022/11/14 00:33:08;;;;;;;;;;;;;;;10.09;70.43;102158.33;1875757;75;20147;-57
2022/11/14 00:35:55;;;;;;;;;;;;;;;10.09;70.34;102157.02;1874646;75;20188;-58
2022/11/14 00:38:41;;;;;;;;;;;;;;;10.07;70.26;102149.17;1882909;75;20116;-56
2022/11/14 00:41:27;;;;;;;;;;;;;;;10.07;70.33;102146.96;1894386;75;20166;-56
2022/11/14 00:44:13;;;;;;;;;;;;;;;9.98;70.24;102134.38;1878598;76;20113;-57
2022/11/14 00:46:58;;;;;;;;;;;;;;;9.90;70.28;102132.73;1847188;78;20187;-57
2022/11/14 00:49:44;;;;;;;;;;;;;;;9.81;70.25;102133.72;1852562;75;20124;-57
2022/11/14 00:52:30;;;;;;;;;;;;;;;9.72;70.25;102133.42;1878341;76;20421;-58
2022/11/14 00:55:16;;;;;;;;;;;;;;;9.64;70.28;102130.00;1878430;76;20140;-57
2022/11/14 00:58:02;;;;;;;;;;;;;;;9.55;70.23;102125.72;1878419;76;20118;-58
2022/11/14 01:00:48;;;;;;;;;;;;;;;9.46;70.23;102126.73;1876840;76;20114;-59
2022/11/14 01:03:37;;;;;;;;;;;;;;;9.40;70.29;102126.78;1839406;77;20255;-55
2022/11/14 01:06:23;;;;;;;;;;;;;;;9.34;70.35;102122.06;1840458;78;20120;-56
2022/11/14 01:09:08;;;;;;;;;;;;;;;9.25;70.32;102122.58;1838810;78;20157;-57
2022/11/14 01:11:55;;;;;;;;;;;;;;;9.20;70.30;102124.84;1836853;78;20206;-57
2022/11/14 01:14:41;;;;;;;;;;;;;;;9.13;70.40;102127.99;1857403;77;20165;-57
2022/11/14 01:17:27;;;;;;;;;;;;;;;9.08;70.35;102135.05;1819739;77;20118;-55
2022/11/14 01:20:13;;;;;;;;;;;;;;;9.01;70.38;102133.37;1858873;77;20179;-56
2022/11/14 01:22:58;;;;;;;;;;;;;;;8.96;70.40;102133.85;1848282;77;20114;-54
2022/11/14 01:25:44;;;;;;;;;;;;;;;8.91;70.52;102122.51;1850886;77;20117;-57
2022/11/14 01:28:31;;;;;;;;;;;;;;;8.84;70.49;102128.28;1871694;77;20205;-57
2022/11/14 01:31:18;;;;;;;;;;;;;;;8.78;70.61;102126.59;1849366;77;20254;-58
2022/11/14 01:34:04;;;;;;;;;;;;;;;8.72;70.67;102121.37;1854695;77;20118;-56
2022/11/14 01:36:50;;;;;;;;;;;;;;;8.68;70.73;102122.30;1854089;77;20235;-54
2022/11/14 01:39:36;;;;;;;;;;;;;;;8.63;70.81;102118.83;1839735;78;20393;-57
2022/11/14 01:42:21;;;;;;;;;;;;;;;8.59;70.79;102117.13;1840475;78;20183;-58
2022/11/14 01:45:25;;;;;;;;;;;;;;;8.55;70.85;102121.98;1833591;78;20143;-52
2022/11/14 01:48:27;;;;;;;;;;;;;;;8.49;70.84;102117.20;1840409;78;20116;-49
2022/11/14 01:51:21;;;;;;;;;;;;;;;8.43;71.04;102112.02;1823315;78;20158;-50
2022/11/14 01:54:08;;;;;;;;;;;;;;;8.40;71.01;102117.70;1784938;79;20125;-55
2022/11/14 01:56:58;;;;;;;;;;;;;;;8.37;71.05;102117.26;1810593;78;20179;-52
2022/11/14 01:59:45;;;;;;;;;;;;;;;8.40;71.12;102122.95;1810364;79;20494;-55
2022/11/14 02:02:31;;;;;;;;;;;;;;;8.43;71.22;102113.33;1815353;78;20119;-56
2022/11/14 02:05:17;;;;;;;;;;;;;;;8.50;71.25;102111.09;1837550;78;20116;-50
2022/11/14 02:08:04;;;;;;;;;;;;;;;8.53;71.45;102118.05;1837726;78;20132;-60
2022/11/14 02:10:49;;;;;;;;;;;;;;;8.59;71.34;102109.25;1837802;78;20123;-59
2022/11/14 02:13:35;;;;;;;;;;;;;;;8.63;71.46;102110.95;1834675;78;20228;-57
2022/11/14 02:16:21;;;;;;;;;;;;;;;8.67;71.30;102116.18;1804601;78;20198;-53
2022/11/14 02:19:07;;;;;;;;;;;;;;;8.70;71.36;102123.14;1804534;80;20168;-53
2022/11/14 02:21:53;;;;;;;;;;;;;;;8.75;71.25;102125.75;1804509;80;20134;-56
2022/11/14 02:24:40;;;;;;;;;;;;;;;8.76;71.38;102128.36;1806613;78;20149;-57
2022/11/14 02:27:26;;;;;;;;;;;;;;;8.78;71.43;102120.03;1804528;80;20123;-55
2022/11/14 02:30:14;;;;;;;;;;;;;;;8.81;71.30;102119.11;1804508;80;20166;-56
2022/11/14 02:33:00;;;;;;;;;;;;;;;8.82;71.18;102112.53;1804409;80;20127;-58
2022/11/14 02:35:46;;;;;;;;;;;;;;;8.82;71.20;102120.42;1806752;78;20122;-58
2022/11/14 02:38:32;;;;;;;;;;;;;;;8.73;71.50;102121.81;1804507;80;20173;-52
2022/11/14 02:41:18;;;;;;;;;;;;;;;8.67;71.67;102123.20;1804409;80;20123;-53
2022/11/14 02:44:04;;;;;;;;;;;;;;;8.64;71.78;102110.09;1804580;80;20180;-53
2022/11/14 02:46:49;;;;;;;;;;;;;;;8.59;71.93;102110.11;1806726;78;20154;-51
2022/11/14 02:49:35;;;;;;;;;;;;;;;8.62;71.76;102117.11;1804471;80;20123;-52
2022/11/14 02:52:21;;;;;;;;;;;;;;;8.66;71.65;102121.44;1804542;80;20138;-52
2022/11/14 02:55:07;;;;;;;;;;;;;;;8.71;71.55;102116.16;1804522;80;20115;-53
2022/11/14 02:57:53;;;;;;;;;;;;;;;8.70;71.54;102120.52;1806640;78;20123;-52
2022/11/14 03:00:38;;;;;;;;;;;;;;;8.72;71.46;102126.62;1804478;80;20123;-50
2022/11/14 03:03:24;;;;;;;;;;;;;;;8.76;71.37;102125.73;1802207;79;20127;-50
2022/11/14 03:06:10;;;;;;;;;;;;;;;8.79;71.29;102124.38;1800962;78;20126;-50
2022/11/14 03:08:56;;;;;;;;;;;;;;;8.82;71.21;102119.10;1801388;80;20156;-49
2022/11/14 03:11:42;;;;;;;;;;;;;;;8.79;71.29;102123.06;1801443;80;20162;-49
2022/11/14 03:14:30;;;;;;;;;;;;;;;8.80;71.22;102103.81;1801429;80;20168;-49
2022/11/14 03:17:16;;;;;;;;;;;;;;;8.77;71.45;102099.88;1817721;78;20117;-54
2022/11/14 03:20:02;;;;;;;;;;;;;;;8.75;71.58;102099.03;1831402;78;20256;-53
2022/11/14 03:22:48;;;;;;;;;;;;;;;8.70;71.74;102094.27;1831391;78;20151;-55
2022/11/14 03:25:34;;;;;;;;;;;;;;;8.68;71.87;102096.90;1831402;78;20148;-54
2022/11/14 03:28:20;;;;;;;;;;;;;;;8.71;71.71;102101.27;1829118;78;20141;-52
2022/11/14 03:31:07;;;;;;;;;;;;;;;8.75;71.60;102104.73;1828220;78;20144;-54
2022/11/14 03:33:53;;;;;;;;;;;;;;;8.73;71.81;102107.38;1820675;79;20137;-48
2022/11/14 03:36:39;;;;;;;;;;;;;;;8.62;72.27;102092.16;1820747;79;20158;-57
2022/11/14 03:39:25;;;;;;;;;;;;;;;8.50;72.50;102094.02;1830951;78;20158;-54
2022/11/14 03:42:10;;;;;;;;;;;;;;;8.50;72.39;102096.64;1831311;78;20116;-54
2022/11/14 03:44:56;;;;;;;;;;;;;;;8.55;72.21;102097.04;1831323;78;20153;-55
2022/11/14 03:47:42;;;;;;;;;;;;;;;8.56;72.13;102104.02;1829091;78;20175;-57
2022/11/14 03:50:28;;;;;;;;;;;;;;;8.59;72.03;102113.19;1831342;78;20216;-54
2022/11/14 03:53:14;;;;;;;;;;;;;;;8.59;71.97;102111.87;1831249;78;20192;-51
2022/11/14 03:56:00;;;;;;;;;;;;;;;8.60;71.88;102115.80;1831362;78;20121;-53
2022/11/14 03:58:46;;;;;;;;;;;;;;;8.62;71.79;102121.91;1829099;78;20121;-56
2022/11/14 04:01:32;;;;;;;;;;;;;;;8.63;71.77;102126.70;1831292;78;20395;-53
2022/11/14 04:04:17;;;;;;;;;;;;;;;8.63;71.71;102126.70;1831262;78;20198;-56
2022/11/14 04:07:03;;;;;;;;;;;;;;;8.65;71.65;102135.44;1831303;78;20124;-51
2022/11/14 04:09:50;;;;;;;;;;;;;;;8.68;71.55;102134.11;1831280;78;20129;-53
2022/11/14 04:12:36;;;;;;;;;;;;;;;8.65;71.65;102132.81;1804337;77;20123;-49
2022/11/14 04:15:22;;;;;;;;;;;;;;;8.60;71.71;102134.19;1801279;80;20220;-53
2022/11/14 04:18:07;;;;;;;;;;;;;;;8.57;71.78;102145.15;1800982;78;20412;-56
2022/11/14 04:20:53;;;;;;;;;;;;;;;8.57;71.74;102153.03;1823798;78;20199;-55
2022/11/14 04:23:39;;;;;;;;;;;;;;;8.60;71.64;102155.64;1831326;78;20489;-54
2022/11/14 04:26:25;;;;;;;;;;;;;;;8.59;71.70;102159.13;1818566;78;20155;-51
2022/11/14 04:29:10;;;;;;;;;;;;;;;8.58;71.67;102155.64;1854979;77;20122;-53
2022/11/14 04:31:56;;;;;;;;;;;;;;;8.48;71.88;102162.73;1852888;77;20140;-54
2022/11/14 04:34:42;;;;;;;;;;;;;;;8.49;71.82;102161.83;1835113;78;20409;-53
2022/11/14 04:37:27;;;;;;;;;;;;;;;8.54;71.74;102163.55;1826353;78;20123;-54
2022/11/14 04:40:13;;;;;;;;;;;;;;;8.56;71.69;102177.11;1801331;80;20169;-56
2022/11/14 04:42:59;;;;;;;;;;;;;;;8.59;71.62;102178.83;1801481;80;20123;-54
2022/11/14 04:45:45;;;;;;;;;;;;;;;8.61;71.55;102181.89;1831446;78;20113;-55
2022/11/14 04:48:31;;;;;;;;;;;;;;;8.63;71.51;102175.28;1831355;78;20235;-51
2022/11/14 04:51:17;;;;;;;;;;;;;;;8.60;71.54;102174.02;1832534;77;20361;-53
2022/11/14 04:54:03;;;;;;;;;;;;;;;8.62;71.52;102181.44;1821991;77;20216;-49
2022/11/14 04:56:49;;;;;;;;;;;;;;;8.60;71.59;102180.13;1856660;77;20119;-53
2022/11/14 04:59:35;;;;;;;;;;;;;;;8.63;71.59;102180.53;1856908;77;20124;-51
2022/11/14 05:02:21;;;;;;;;;;;;;;;8.67;71.50;102188.84;1836557;77;20238;-50
2022/11/14 05:05:07;;;;;;;;;;;;;;;8.68;71.49;102189.25;1838702;77;20146;-56
2022/11/14 05:07:53;;;;;;;;;;;;;;;8.68;71.56;102182.69;1828209;77;20474;-53
2022/11/14 05:10:41;;;;;;;;;;;;;;;8.67;71.61;102187.53;1817748;78;20176;-48
2022/11/14 05:13:26;;;;;;;;;;;;;;;8.67;71.65;102190.16;1841281;78;20112;-48
2022/11/14 05:16:12;;;;;;;;;;;;;;;8.71;71.56;102197.13;1841412;78;20433;-51
2022/11/14 05:18:58;;;;;;;;;;;;;;;8.76;71.47;102212.41;1841384;78;20428;-49
2022/11/14 05:21:43;;;;;;;;;;;;;;;8.82;71.40;102213.66;1829287;78;20166;-52
2022/11/14 05:24:30;;;;;;;;;;;;;;;8.84;71.36;102207.09;1811342;79;20427;-54
2022/11/14 05:27:16;;;;;;;;;;;;;;;8.87;71.30;102207.94;1811386;79;20171;-51
2022/11/14 05:30:02;;;;;;;;;;;;;;;8.84;71.42;102210.58;1811354;79;20154;-52
2022/11/14 05:32:48;;;;;;;;;;;;;;;8.85;71.42;102212.75;1811380;79;20152;-50
2022/11/14 05:35:34;;;;;;;;;;;;;;;8.93;71.32;102216.62;1811346;79;20126;-54
2022/11/14 05:38:20;;;;;;;;;;;;;;;9.00;71.20;102215.69;1811346;79;20190;-55
2022/11/14 05:41:06;;;;;;;;;;;;;;;9.08;71.17;102217.81;1811333;79;20499;-56
2022/11/14 05:43:52;;;;;;;;;;;;;;;9.15;71.14;102213.36;1811509;79;20411;-56
2022/11/14 05:46:41;;;;;;;;;;;;;;;9.22;71.05;102217.25;1811329;79;20392;-55
2022/11/14 05:49:25;;;;;;;;;;;;;;;9.28;70.98;102221.13;1811303;79;20149;-56
2022/11/14 05:52:11;;;;;;;;;;;;;;;9.38;70.92;102223.20;1811349;79;20118;-57
2022/11/14 05:54:59;;;;;;;;;;;;;;;9.45;70.83;102220.08;1811338;79;20126;-56
2022/11/14 05:57:44;;;;;;;;;;;;;;;9.52;70.73;102227.02;1811346;79;20133;-57
2022/11/14 06:00:30;;;;;;;;;;;;;;;9.60;70.66;102222.53;1811394;79;20146;-57
2022/11/14 06:03:16;;;;;;;;;;;;;;;9.63;70.70;102219.87;1811318;79;20150;-60
2022/11/14 06:06:03;;;;;;;;;;;;;;;9.65;70.73;102216.78;1811380;79;20131;-61
2022/11/14 06:08:49;;;;;;;;;;;;;;;9.74;70.69;102214.91;1819533;78;20242;-58
2022/11/14 06:11:35;;;;;;;;;;;;;;;9.81;70.62;102213.95;1835869;78;20219;-61
2022/11/14 06:14:20;;;;;;;;;;;;;;;9.85;70.57;102219.17;1836102;78;20825;-60
2022/11/14 06:17:06;;;;;;;;;;;;;;;9.94;70.48;102220.83;1835477;78;20230;-60
2022/11/14 06:19:51;;;;;;;;;;;;;;;10.04;70.38;102218.48;1835697;78;20473;-61
2022/11/14 06:22:37;;;;;;;;;;;;;;;10.13;70.33;102214.02;1835844;78;20245;-62
2022/11/14 06:25:23;;;;;;;;;;;;;;;10.19;70.24;102218.73;1837582;78;20299;-61
2022/11/14 06:28:08;;;;;;;;;;;;;;;10.27;70.16;102212.03;1836472;78;20244;-62
2022/11/14 06:31:01;;;;;;;;;;;;;;;10.34;70.08;102219.44;1836671;78;20552;-61
2022/11/14 06:33:47;;;;;;;;;;;;;;;10.40;70.00;102216.70;1836432;78;20287;-61
2022/11/14 06:36:33;;;;;;;;;;;;;;;10.45;69.94;102219.29;1837315;78;20178;-53
2022/11/14 06:39:19;;;;;;;;;;;;;;;10.51;69.89;102208.65;1836204;78;20218;-59
2022/11/14 06:42:05;;;;;;;;;;;;;;;10.57;69.81;102201.99;1834277;78;20207;-61
2022/11/14 06:44:50;;;;;;;;;;;;;;;10.67;69.76;102214.56;1837281;78;20244;-61
2022/11/14 06:47:35;;;;;;;;;;;;;;;10.74;69.74;102210.48;1837294;78;20219;-61
2022/11/14 06:50:21;;;;;;;;;;;;;;;10.81;69.62;102213.45;1837740;78;20167;-59
2022/11/14 06:53:07;;;;;;;;;;;;;;;10.92;69.61;102207.11;1836291;78;20282;-59
2022/11/14 06:55:57;;;;;;;;;;;;;;;11.03;69.55;102207.82;1835515;78;20232;-59
2022/11/14 06:58:44;;;;;;;;;;;;;;;11.09;69.52;102199.80;1835275;78;20282;-59
2022/11/14 07:01:30;;;;;;;;;;;;;;;11.15;69.51;102206.72;1836673;78;20226;-65
2022/11/14 07:04:16;;;;;;;;;;;;;;;11.16;69.50;102209.33;1832675;77;20308;-69
2022/11/14 07:07:02;;;;;;;;;;;;;;;11.20;69.45;102214.97;1825135;78;20429;-68
2022/11/14 07:09:48;;;;;;;;;;;;;;;11.20;69.50;102208.38;1826131;78;20210;-65
2022/11/14 07:12:36;;;;;;;;;;;;;;;11.22;69.61;102204.85;1727153;81;20309;-65
2022/11/14 07:15:22;;;;;;;;;;;;;;;11.23;69.72;102207.44;1730458;81;21198;-59
2022/11/14 07:18:07;;;;;;;;;;;;;;;11.25;69.60;102215.32;1733211;81;20288;-67
2022/11/14 07:21:01;;;;;;;;;;;;;;;11.34;69.58;102218.68;1757972;80;20264;-67
2022/11/14 07:23:51;;;;;;;;;;;;;;;11.47;69.45;102217.11;1755338;81;20914;-67
2022/11/14 07:26:33;;;;;;;;;;;;;;;11.60;69.30;102213.36;1756144;80;20203;-68
2022/11/14 07:29:18;;;;;;;;;;;;;;;11.71;69.05;102214.44;1754676;81;20263;-68
2022/11/14 07:32:04;;;;;;;;;;;;;;;11.74;68.98;102214.38;1758570;80;20560;-65
2022/11/14 07:34:49;;;;;;;;;;;;;;;11.70;69.05;102212.72;1759464;80;20535;-62
2022/11/14 07:37:35;;;;;;;;;;;;;;;11.64;68.92;102215.45;1756450;80;20258;-62
2022/11/14 07:40:21;;;;;;;;;;;;;;;11.67;68.92;102215.41;1757575;81;20262;-61
2022/11/14 07:43:06;;;;;;;;;;;;;;;11.76;68.94;102218.72;1755286;81;20256;-62
2022/11/14 07:45:53;;;;;;;;;;;;;;;11.90;68.75;102214.52;1756802;80;20232;-63
2022/11/14 07:48:39;;;;;;;;;;;;;;;11.93;68.62;102211.83;1757940;80;20215;-65
2022/11/14 07:51:25;;;;;;;;;;;;;;;11.93;68.33;102217.11;1759167;80;20240;-63
2022/11/14 07:54:11;;;;;;;;;;;;;;;12.81;67.92;102212.44;1755161;81;20303;-66
2022/11/14 07:56:57;;;;;;;;;;;;;;;14.91;64.50;102207.72;1758683;81;20213;-62
2022/11/14 07:59:44;;;;;;;;;;;;;;;15.08;64.35;102205.34;1756965;80;20228;-66
2022/11/14 08:02:30;;;;;;;;;;;;;;;14.81;64.23;102202.73;1754869;80;20234;-62
2022/11/14 08:05:16;;;;;;;;;;;;;;;14.63;64.09;102208.64;1752720;80;21268;-62
2022/11/14 08:08:01;;;;;;;;;;;;;;;16.58;61.36;102210.81;1754846;80;20222;-63
2022/11/14 08:10:47;;;;;;;;;;;;;;;17.98;59.27;102199.00;1758358;78;20228;-63
2022/11/14 08:13:32;;;;;;;;;;;;;;;17.78;59.25;102198.56;1803823;78;20509;-64
2022/11/14 08:16:18;;;;;;;;;;;;;;;17.92;58.80;102196.16;1804094;78;20273;-64
2022/11/14 08:19:04;;;;;;;;;;;;;;;17.44;59.60;102190.78;1800961;78;20233;-63
2022/11/14 08:21:49;;;;;;;;;;;;;;;16.97;60.02;102195.47;1803993;78;20251;-64
2022/11/14 08:24:35;;;;;;;;;;;;;;;16.39;61.22;102196.04;1803189;78;21126;-59
2022/11/14 08:27:21;;;;;;;;;;;;;;;15.72;61.14;102186.23;1799374;78;20536;-60
2022/11/14 08:30:07;;;;;;;;;;;;;;;15.21;61.80;102189.86;1798407;78;20111;-58
2022/11/14 08:32:52;;;;;;;;;;;;;;;14.83;62.46;102194.26;1801751;78;20267;-59
2022/11/14 08:35:38;;;;;;;;;;;;;;;14.54;62.75;102195.66;1799806;78;20242;-58
2022/11/14 08:38:23;;;;;;;;;;;;;;;14.23;62.59;102198.80;1802690;78;20281;-59
2022/11/14 08:41:09;;;;;;;;;;;;;;;14.09;62.99;102190.41;1801168;78;20262;-58
2022/11/14 08:43:55;;;;;;;;;;;;;;;13.96;63.30;102191.27;1799428;78;20539;-59
2022/11/14 08:46:40;;;;;;;;;;;;;;;13.93;63.43;102189.16;1802990;78;20224;-59
2022/11/14 08:49:26;;;;;;;;;;;;;;;14.14;63.14;102185.84;1803344;78;20174;-57
2022/11/14 08:52:12;;;;;;;;;;;;;;;15.16;61.40;102178.55;1804613;78;20540;-60
2022/11/14 08:54:57;;;;;;;;;;;;;;;15.60;59.63;102177.39;1805362;78;20464;-58
2022/11/14 08:57:43;;;;;;;;;;;;;;;15.62;59.78;102176.87;1805088;78;20285;-58
2022/11/14 09:00:29;;;;;;;;;;;;;;;15.21;59.56;102169.97;1803632;78;20304;-59
2022/11/14 09:03:14;;;;;;;;;;;;;;;14.71;60.00;102179.22;1802024;78;20201;-59
2022/11/14 09:06:01;;;;;;;;;;;;;;;14.51;60.47;102175.40;1804065;78;20170;-59
2022/11/14 09:08:46;;;;;;;;;;;;;;;14.49;60.99;102173.26;1805111;78;20266;-59
2022/11/14 09:11:32;;;;;;;;;;;;;;;14.63;61.11;102172.39;1804731;78;20217;-59
2022/11/14 09:14:17;;;;;;;;;;;;;;;14.47;61.06;102171.12;1813088;78;20203;-59
2022/11/14 09:17:03;;;;;;;;;;;;;;;14.32;61.66;102178.25;1809670;78;20221;-59
2022/11/14 09:19:49;;;;;;;;;;;;;;;14.38;61.76;102168.30;1808570;78;20270;-59
2022/11/14 09:22:36;;;;;;;;;;;;;;;14.32;61.61;102163.68;1791199;80;20147;-58
2022/11/14 09:25:21;;;;;;;;;;;;;;;14.10;62.11;102165.20;1804697;80;20175;-58
2022/11/14 09:28:08;;;;;;;;;;;;;;;14.01;62.42;102167.28;1804771;80;20183;-58
2022/11/14 09:30:56;;;;;;;;;;;;;;;14.96;61.39;102158.91;1803403;80;20118;-58
2022/11/14 09:33:41;;;;;;;;;;;;;;;16.82;58.00;102161.52;1800815;80;20217;-67
2022/11/14 09:36:27;;;;;;;;;;;;;;;16.51;58.50;102160.13;1800656;80;20282;-67
2022/11/14 09:39:13;;;;;;;;;;;;;;;15.86;59.22;102154.33;1802126;80;20256;-57
2022/11/14 09:42:13;;;;;;;;;;;;;;;15.28;59.86;102144.95;1800809;80;20233;-63
2022/11/14 09:45:05;;;;;;;;;;;;;;;14.90;60.63;102147.63;1800770;80;20189;-60
2022/11/14 09:47:48;;;;;;;;;;;;;;;15.48;59.90;102156.16;1801417;80;20158;-59
2022/11/14 09:50:36;;;;;;;;;;;;;;;16.79;56.63;102148.34;1801579;80;20228;-60
2022/11/14 09:53:38;;;;;;;;;;;;;;;18.33;53.57;102139.98;1801309;80;20257;-63
2022/11/14 09:56:25;;;;;;;;;;;;;;;18.98;52.90;102130.94;1802265;80;20154;-58
2022/11/14 09:59:14;;;;;;;;;;;;;;;21.12;48.97;102123.33;1800696;80;20989;-60
2022/11/14 10:02:01;;;;;;;;;;;;;;;20.20;50.71;102132.33;1801153;79;20249;-63
2022/11/14 10:04:48;;;;;;;;;;;;;;;18.48;53.36;102127.23;1801354;80;20273;-62
2022/11/14 10:07:47;;;;;;;;;;;;;;;17.30;55.69;102129.72;1800360;80;20472;-64
2022/11/14 10:10:50;;;;;;;;;;;;;;;16.51;56.97;102130.89;1801508;80;20429;-64
2022/11/14 10:13:43;;;;;;;;;;;;;;;16.54;57.15;102128.11;1775599;79;20298;-55
2022/11/14 10:16:39;;;;;;;;;;;;;;;17.82;53.40;102122.91;1770218;81;20226;-67
2022/11/14 10:19:26;;;;;;;;;;;;;;;19.52;50.62;102118.70;1771488;81;20195;-62
2022/11/14 10:22:20;;;;;;;;;;;;;;;21.43;47.41;102106.17;1771360;81;20206;-63
2022/11/14 10:25:23;;;;;;;;;;;;;;;22.68;46.12;102102.91;1770890;81;20261;-63
2022/11/14 10:28:09;;;;;;;;;;;;;;;23.46;44.75;102108.67;1771787;81;20198;-62
2022/11/14 10:30:57;;;;;;;;;;;;;;;23.36;45.37;102102.23;1771077;81;20247;-63
2022/11/14 10:34:01;;;;;;;;;;;;;;;21.73;48.33;102106.56;1771570;81;20161;-61
2022/11/14 10:36:51;;;;;;;;;;;;;;;21.20;48.31;102106.30;1771385;81;20573;-62
2022/11/14 10:39:44;;;;;;;;;;;;;;;20.00;50.13;102108.91;1770819;81;20252;-61
2022/11/14 10:42:36;;;;;;;;;;;;;;;18.55;52.29;102103.76;1770738;81;20435;-62
2022/11/14 10:45:23;;;;;;;;;;;;;;;18.41;52.28;102103.14;1771475;81;20152;-62
2022/11/14 10:48:10;;;;;;;;;;;;;;;20.35;48.42;102096.66;1771433;81;20198;-63
2022/11/14 10:50:57;;;;;;;;;;;;;;;21.93;45.56;102095.40;1770185;81;20314;-61
2022/11/14 10:53:48;;;;;;;;;;;;;;;22.94;44.01;102098.90;1770957;81;20222;-61
2022/11/14 10:56:34;;;;;;;;;;;;;;;23.46;43.54;102094.35;1770682;81;20167;-61
2022/11/14 10:59:20;;;;;;;;;;;;;;;23.59;42.74;102094.32;1770718;81;20275;-61
2022/11/14 11:02:06;;;;;;;;;;;;;;;23.41;42.38;102082.61;1770635;81;20188;-62
2022/11/14 11:04:52;;;;;;;;;;;;;;;23.36;43.16;102086.60;1771215;81;20174;-61
2022/11/14 11:13:49;;;;;;;;;;;;;;;20.35;45.07;102076.59;1789551;79;20296;-61
2022/11/14 11:16:34;;;;;;;;;;;;;;;20.08;45.72;102083.55;1794907;80;20183;-61
2022/11/14 11:19:25;;;;;;;;;;;;;;;19.54;47.03;102084.75;1794255;80;20294;-58
2022/11/14 11:22:28;;;;;;;;;;;;;;;18.76;48.46;102083.13;1795910;80;20457;-61
2022/11/14 11:25:24;;;;;;;;;;;;;;;17.92;49.52;102080.24;1795339;80;20589;-61
2022/11/14 11:28:17;;;;;;;;;;;;;;;17.03;50.48;102077.73;1796296;80;20247;-61
2022/11/14 11:31:11;;;;;;;;;;;;;;;17.60;49.92;102074.64;1795269;80;20259;-60
2022/11/14 11:33:58;;;;;;;;;;;;;;;18.80;47.96;102070.02;1794215;80;20156;-60
2022/11/14 11:36:45;;;;;;;;;;;;;;;19.74;46.68;102068.13;1795126;80;20197;-68
2022/11/14 11:39:32;;;;;;;;;;;;;;;20.20;45.97;102069.48;1793465;80;20282;-59
2022/11/14 11:42:19;;;;;;;;;;;;;;;20.52;45.91;102070.23;1795866;80;20267;-59
2022/11/14 11:45:20;;;;;;;;;;;;;;;20.92;45.31;102061.63;1795624;80;20126;-59
2022/11/14 11:47:55;;;;;;;;;;;;;;;20.86;45.25;102059.31;1793973;80;20254;-60
2022/11/14 11:50:41;;;;;;;;;;;;;;;20.80;45.50;102056.09;1788200;80;20126;-59
2022/11/14 11:53:29;;;;;;;;;;;;;;;20.60;45.90;102063.98;1795177;80;20225;-59
2022/11/14 11:56:16;;;;;;;;;;;;;;;19.57;47.10;102064.56;1795290;80;20119;-62
2022/11/14 11:59:19;;;;;;;;;;;;;;;18.32;48.82;102062.28;1795490;80;20581;-62
2022/11/14 12:02:06;;;;;;;;;;;;;;;17.30;50.23;102063.61;1796160;80;20281;-62
2022/11/14 12:04:53;;;;;;;;;;;;;;;16.68;51.14;102077.45;1795725;78;20629;-60
2022/11/14 12:07:44;;;;;;;;;;;;;;;16.37;51.75;102070.78;1795009;80;20261;-61
2022/11/14 12:10:31;;;;;;;;;;;;;;;16.13;52.15;102066.03;1795889;80;20297;-61
2022/11/14 12:13:27;;;;;;;;;;;;;;;15.94;52.30;102063.27;1795535;80;20207;-60
2022/11/14 12:16:17;;;;;;;;;;;;;;;15.79;52.55;102076.23;1795175;80;20508;-61
2022/11/14 12:19:05;;;;;;;;;;;;;;;15.69;52.79;102072.63;1796537;80;20190;-54
2022/11/14 12:21:58;;;;;;;;;;;;;;;15.55;52.73;102071.86;1796194;80;20230;-60
2022/11/14 12:24:54;;;;;;;;;;;;;;;15.31;52.67;102077.17;1795053;80;20253;-59
2022/11/14 12:27:44;;;;;;;;;;;;;;;15.09;53.10;102074.89;1796424;80;20265;-59
2022/11/14 12:30:31;;;;;;;;;;;;;;;14.83;53.45;102070.09;1795120;80;20533;-60
2022/11/14 12:33:25;;;;;;;;;;;;;;;14.53;53.78;102066.69;1794956;80;20138;-63
2022/11/14 12:36:11;;;;;;;;;;;;;;;14.28;54.39;102073.69;1795270;80;20559;-62
2022/11/14 12:38:59;;;;;;;;;;;;;;;14.13;54.58;102078.17;1794636;80;20285;-65
2022/11/14 12:41:45;;;;;;;;;;;;;;;13.98;54.70;102078.65;1797326;80;20123;-59
2022/11/14 12:44:33;;;;;;;;;;;;;;;13.80;54.78;102077.01;1795410;80;20116;-55
2022/11/14 12:47:23;;;;;;;;;;;;;;;13.68;54.92;102075.62;1795368;80;20401;-58
2022/11/14 12:50:27;;;;;;;;;;;;;;;13.52;55.25;102075.67;1785532;80;20185;-58
2022/11/14 12:53:35;;;;;;;;;;;;;;;13.38;55.37;102076.53;1779596;81;20450;-58
2022/11/14 12:56:32;;;;;;;;;;;;;;;13.16;55.54;102071.82;1782094;80;20164;-59
2022/11/14 12:59:20;;;;;;;;;;;;;;;12.99;55.95;102069.66;1798363;80;20131;-58
2022/11/14 13:02:26;;;;;;;;;;;;;;;12.86;56.22;102073.56;1798854;80;20143;-56
2022/11/14 13:05:16;;;;;;;;;;;;;;;12.74;56.47;102071.66;1798861;80;20145;-63
2022/11/14 13:08:20;;;;;;;;;;;;;;;12.71;56.45;102081.45;1798851;80;20122;-61
2022/11/14 13:21:44;;;;;;;;;;;;;;;12.62;56.26;102075.94;1797271;80;20243;-61
2022/11/14 13:23:31;;;;;;;;;;;;;;;12.06;57.39;102083.50;1804731;80;20193;-62
2022/11/14 13:26:18;;;;;;;;;;;;;;;11.94;57.46;102082.89;1804735;80;20151;-60
2022/11/14 13:29:03;;;;;;;;;;;;;;;11.84;57.62;102084.41;1804719;80;20214;-61
2022/11/14 13:31:50;;;;;;;;;;;;;;;11.73;57.80;102083.34;1788472;80;20280;-62
2022/11/14 13:34:40;;;;;;;;;;;;;;;11.65;57.89;102090.56;1775903;81;20147;-63
2022/11/14 13:37:44;;;;;;;;;;;;;;;11.57;58.02;102092.06;1804704;80;20124;-63
2022/11/14 13:40:34;;;;;;;;;;;;;;;11.45;58.15;102087.89;1802306;80;20114;-67
2022/11/14 13:43:22;;;;;;;;;;;;;;;11.38;58.29;102090.27;1800596;80;20149;-67
2022/11/14 13:46:25;;;;;;;;;;;;;;;11.27;58.39;102084.33;1804443;80;20427;-67
2022/11/14 13:49:13;;;;;;;;;;;;;;;11.15;58.57;102088.09;1797011;80;20159;-67
2022/11/14 13:51:59;;;;;;;;;;;;;;;11.07;58.70;102084.29;1804550;80;20157;-67
2022/11/14 13:54:46;;;;;;;;;;;;;;;10.95;58.82;102091.11;1804644;80;20495;-67
2022/11/14 13:57:33;;;;;;;;;;;;;;;10.84;59.00;102090.44;1804655;80;20401;-68
2022/11/14 14:00:19;;;;;;;;;;;;;;;10.75;59.13;102091.05;1804791;80;20130;-68
2022/11/14 14:03:14;;;;;;;;;;;;;;;10.68;59.21;102093.37;1804691;80;20243;-68
2022/11/14 14:06:02;;;;;;;;;;;;;;;10.60;59.25;102086.92;1804693;80;20118;-68
2022/11/14 14:08:52;;;;;;;;;;;;;;;10.53;59.40;102085.72;1804656;80;20149;-68
2022/11/14 14:11:52;;;;;;;;;;;;;;;10.46;59.47;102093.30;1804565;80;20129;-67
2022/11/14 14:14:54;;;;;;;;;;;;;;;10.40;59.53;102091.63;1791419;80;20273;-67
2022/11/14 14:17:51;;;;;;;;;;;;;;;10.29;59.69;102095.75;1779560;81;20233;-67
2022/11/14 14:20:41;;;;;;;;;;;;;;;10.16;59.92;102101.66;1798782;80;20159;-67
2022/11/14 14:23:31;;;;;;;;;;;;;;;10.04;60.09;102103.15;1792663;80;20156;-68
2022/11/14 14:26:19;;;;;;;;;;;;;;;9.97;60.20;102106.31;1797874;80;20118;-67
2022/11/14 14:29:09;;;;;;;;;;;;;;;9.90;60.25;102102.48;1798814;80;20147;-67
2022/11/14 14:31:57;;;;;;;;;;;;;;;9.80;60.43;102110.95;1785451;80;20131;-68
2022/11/14 14:34:43;;;;;;;;;;;;;;;9.70;60.56;102113.27;1779708;81;20114;-68
2022/11/14 14:37:30;;;;;;;;;;;;;;;9.65;60.71;102122.10;1779657;81;20122;-68
2022/11/14 14:40:26;;;;;;;;;;;;;;;9.64;60.76;102119.48;1779617;81;20123;-68
2022/11/14 14:43:14;;;;;;;;;;;;;;;9.62;60.70;102126.53;1779684;81;20397;-68